Time;durP1;ratioP1;P1;durP2;ratioP2;P2;SDS_P1;SDS_P2;PMS_P1;PMS_P2;Temp;Humidity;BMP_temperature;BMP_pressure;BME280_temperature;BME280_humidity;BME280_pressure;Samples;Min_cycle;Max_cycle;Signal;HPM_P1;HPM_P2
2022/01/10 00:00:55;;;;;;;;;19.00;19.00;;;;;9.25;64.29;100574.28;4986929;28;45760;-62
2022/01/10 00:03:22;;;;;;;;;20.25;18.25;;;;;8.77;64.27;100495.63;4986436;28;45540;-64
2022/01/10 00:05:48;;;;;;;;;27.25;19.00;;;;;9.23;64.12;100576.03;4986185;28;45627;-65
2022/01/10 00:08:14;;;;;;;;;19.25;19.25;;;;;9.12;64.01;100545.47;4985616;28;45473;-63
2022/01/10 00:10:41;;;;;;;;;18.25;16.75;;;;;9.02;63.73;100529.25;4981317;28;45695;-63
2022/01/10 00:13:07;;;;;;;;;19.75;17.00;;;;;9.24;63.74;100577.84;4977824;28;45496;-62
2022/01/10 00:15:32;;;;;;;;;24.00;20.00;;;;;9.30;64.51;100586.00;4978515;28;45859;-62
2022/01/10 00:17:58;;;;;;;;;22.00;19.25;;;;;9.25;63.86;100581.41;4982291;28;45490;-63
2022/01/10 00:20:23;;;;;;;;;28.75;20.50;;;;;9.23;64.43;100574.25;4986098;28;46533;-64
2022/01/10 00:22:50;;;;;;;;;19.00;15.50;;;;;9.34;64.30;100589.69;4985583;28;45460;-63
2022/01/10 00:25:20;;;;;;;;;19.25;16.75;;;;;9.37;64.45;100603.06;4986070;28;45440;-63
2022/01/10 00:27:46;;;;;;;;;20.25;18.00;;;;;9.43;63.28;100616.59;4986102;28;45999;-63
2022/01/10 00:30:12;;;;;;;;;18.50;18.50;;;;;9.46;64.17;100607.78;4985806;28;45535;-63
2022/01/10 00:32:39;;;;;;;;;20.50;16.75;;;;;8.72;63.44;100475.94;4983073;28;45984;-63
2022/01/10 00:35:07;;;;;;;;;15.75;14.50;;;;;9.41;63.93;100596.97;4978167;28;45894;-64
2022/01/10 00:37:34;;;;;;;;;18.00;16.50;;;;;9.61;63.34;100626.88;4978292;28;45762;-63
2022/01/10 00:40:00;;;;;;;;;21.25;20.25;;;;;9.63;62.86;100625.16;4983716;28;46197;-61
2022/01/10 00:42:25;;;;;;;;;18.75;16.50;;;;;9.55;63.03;100608.03;5003286;28;45466;-63
2022/01/10 00:44:53;;;;;;;;;20.50;18.25;;;;;9.67;63.09;100627.06;5007779;28;45040;-63
2022/01/10 00:47:18;;;;;;;;;16.50;14.75;;;;;9.70;62.86;100631.56;5006265;28;45468;-63
2022/01/10 00:49:45;;;;;;;;;15.75;11.00;;;;;9.73;62.76;100632.56;5005679;28;45258;-62
2022/01/10 00:52:11;;;;;;;;;11.25;7.25;;;;;9.77;62.54;100645.13;5004539;28;45413;-63
2022/01/10 00:54:37;;;;;;;;;13.50;12.00;;;;;9.81;62.39;100629.19;5006713;28;45310;-63
2022/01/10 00:57:02;;;;;;;;;10.50;8.00;;;;;9.79;62.80;100623.81;4999561;28;45069;-63
2022/01/10 00:59:28;;;;;;;;;10.25;8.00;;;;;9.82;62.33;100629.25;5001194;28;45699;-63
2022/01/10 01:01:53;;;;;;;;;13.25;11.00;;;;;9.80;62.16;100630.03;5002565;28;45401;-63
2022/01/10 01:04:18;;;;;;;;;10.50;9.75;;;;;9.82;62.54;100625.69;5008855;28;45266;-63
2022/01/10 01:06:44;;;;;;;;;13.25;11.00;;;;;9.80;62.37;100622.97;5006705;28;45471;-63
2022/01/10 01:09:13;;;;;;;;;10.50;10.50;;;;;9.85;62.37;100639.06;5006639;28;45355;-63
2022/01/10 01:14:49;;;;;;;;;12.50;11.25;;;;;9.90;62.04;100648.09;5004393;28;45616;-64
2022/01/10 01:17:15;;;;;;;;;11.50;11.00;;;;;9.42;61.62;100577.47;5003231;28;45157;-64
2022/01/10 01:20:04;;;;;;;;;15.50;11.00;;;;;9.64;61.70;100632.28;4999035;28;45867;-63
2022/01/10 01:25:14;;;;;;;;;13.00;10.50;;;;;9.78;61.78;100673.63;5001456;28;45515;-63
2022/01/10 01:27:41;;;;;;;;;11.00;10.75;;;;;9.81;61.88;100682.56;5004761;28;45410;-63
2022/01/10 01:30:08;;;;;;;;;11.50;11.50;;;;;9.82;62.34;100684.38;5004651;28;45977;-63
2022/01/10 01:32:34;;;;;;;;;13.75;12.25;;;;;9.84;62.28;100690.66;5004478;28;45472;-64
2022/01/10 01:35:05;;;;;;;;;12.00;10.00;;;;;9.69;62.56;100662.66;5005111;28;45057;-62
2022/01/10 01:37:30;;;;;;;;;14.75;11.75;;;;;9.81;62.38;100699.47;5005357;28;45527;-64
2022/01/10 01:39:58;;;;;;;;;14.00;13.75;;;;;9.80;62.69;100695.00;5002364;28;45339;-63
2022/01/10 01:42:40;;;;;;;;;17.50;12.50;;;;;9.76;62.48;100698.44;4999233;28;45050;-63
2022/01/10 01:45:09;;;;;;;;;16.00;14.50;;;;;9.89;63.13;100723.72;5000690;28;45548;-63
2022/01/10 01:47:34;;;;;;;;;17.25;16.00;;;;;9.84;62.87;100720.91;5002070;28;45250;-64
2022/01/10 01:50:00;;;;;;;;;19.25;18.00;;;;;9.65;62.72;100691.88;5002722;28;45571;-62
2022/01/10 01:52:27;;;;;;;;;16.25;14.00;;;;;9.85;62.26;100721.78;4986813;28;45321;-63
2022/01/10 01:54:53;;;;;;;;;25.75;15.75;;;;;9.85;62.59;100730.72;5004001;28;45465;-64
2022/01/10 01:57:20;;;;;;;;;6.50;5.00;;;;;9.81;62.52;100722.59;5004784;28;45140;-62
2022/01/10 01:59:46;;;;;;;;;16.25;15.50;;;;;9.48;63.15;100672.72;5003448;28;45244;-63
2022/01/10 02:02:11;;;;;;;;;18.75;14.50;;;;;9.86;63.11;100734.28;5004222;28;45061;-65
2022/01/10 02:04:37;;;;;;;;;15.00;15.00;;;;;9.84;62.69;100734.25;4998736;28;45372;-62
2022/01/10 02:07:03;;;;;;;;;17.50;16.25;;;;;9.88;62.69;100741.50;5000197;28;45289;-64
2022/01/10 02:09:28;;;;;;;;;20.25;15.25;;;;;9.66;62.88;100704.38;5000548;28;45269;-63
2022/01/10 02:11:54;;;;;;;;;22.25;20.50;;;;;9.86;62.46;100744.97;5004957;28;45245;-65
2022/01/10 02:14:19;;;;;;;;;20.75;15.25;;;;;9.79;63.23;100738.56;4986809;28;45321;-64
2022/01/10 02:16:54;;;;;;;;;21.75;16.25;;;;;9.64;63.14;100717.66;5005564;28;45415;-63
2022/01/10 02:19:20;;;;;;;;;20.75;16.25;;;;;9.85;63.02;100764.50;5003450;28;45830;-63
2022/01/10 02:21:45;;;;;;;;;21.50;19.50;;;;;9.81;63.03;100750.16;5003725;28;45143;-63
2022/01/10 02:24:11;;;;;;;;;19.50;15.00;;;;;9.78;63.02;100752.75;4985788;28;45340;-65
2022/01/10 02:26:39;;;;;;;;;19.75;17.25;;;;;9.64;62.46;100725.66;4998920;28;45373;-63
2022/01/10 02:29:05;;;;;;;;;17.25;15.75;;;;;9.70;62.83;100763.19;4999817;28;45183;-63
2022/01/10 02:31:35;;;;;;;;;16.00;16.00;;;;;9.76;63.18;100759.78;4999710;28;45261;-62
2022/01/10 02:34:00;;;;;;;;;20.00;16.50;;;;;9.71;63.23;100748.97;5002930;28;45391;-64
2022/01/10 02:36:27;;;;;;;;;21.25;20.00;;;;;9.69;63.35;100748.03;5004546;28;45356;-63
2022/01/10 02:38:52;;;;;;;;;23.00;20.75;;;;;9.73;62.94;100757.97;5003505;28;46575;-63
2022/01/10 02:41:26;;;;;;;;;23.00;22.75;;;;;9.74;63.38;100754.41;5002982;28;45423;-64
2022/01/10 02:43:52;;;;;;;;;25.00;22.50;;;;;9.72;63.54;100758.81;5007223;28;45321;-65
2022/01/10 02:46:18;;;;;;;;;27.50;22.75;;;;;9.48;62.79;100726.06;5005356;28;45185;-63
2022/01/10 02:48:44;;;;;;;;;28.75;25.50;;;;;9.58;62.94;100746.81;4999650;28;45619;-63
2022/01/10 02:51:10;;;;;;;;;31.00;23.25;;;;;9.67;63.66;100772.84;4999078;28;45303;-63
2022/01/10 02:53:35;;;;;;;;;27.25;19.00;;;;;9.67;63.53;100773.78;4999366;28;45244;-62
2022/01/10 02:56:01;;;;;;;;;25.25;20.50;;;;;9.64;63.61;100779.00;5000673;28;45728;-63
2022/01/10 02:58:26;;;;;;;;;29.25;22.25;;;;;9.62;63.84;100787.81;5003270;28;45456;-63
2022/01/10 03:00:51;;;;;;;;;26.25;22.00;;;;;9.59;63.71;100786.88;5003034;28;45464;-62
2022/01/10 03:03:17;;;;;;;;;29.50;22.25;;;;;9.58;63.45;100792.16;5003684;28;45488;-63
2022/01/10 03:05:42;;;;;;;;;23.50;20.50;;;;;9.58;63.76;100797.50;5004384;28;45487;-63
2022/01/10 03:08:07;;;;;;;;;27.50;21.25;;;;;9.56;63.10;100804.53;5003271;28;45135;-62
2022/01/10 03:10:33;;;;;;;;;15.25;15.25;;;;;9.50;63.62;100788.34;4998877;28;45277;-64
2022/01/10 03:13:00;;;;;;;;;19.75;15.50;;;;;9.56;63.77;100805.44;4998929;28;45316;-64
2022/01/10 03:15:25;;;;;;;;;14.50;13.00;;;;;9.52;63.35;100797.28;4999966;28;45380;-63
2022/01/10 03:17:51;;;;;;;;;14.00;12.00;;;;;9.53;62.95;100815.13;5000710;28;45938;-63
2022/01/10 03:20:16;;;;;;;;;18.00;12.50;;;;;9.54;63.82;100817.81;5002734;28;45258;-62
2022/01/10 03:22:41;;;;;;;;;28.25;25.00;;;;;9.57;63.99;100812.59;5002690;28;45263;-62
2022/01/10 03:25:07;;;;;;;;;38.50;27.50;;;;;9.57;63.73;100823.25;5004052;28;45121;-62
2022/01/10 03:27:34;;;;;;;;;38.25;32.25;;;;;9.33;63.73;100791.38;5002732;28;46151;-62
2022/01/10 03:29:59;;;;;;;;;30.50;30.00;;;;;9.53;63.75;100828.44;5003366;28;45102;-62
2022/01/10 03:32:25;;;;;;;;;38.00;29.75;;;;;9.14;63.85;100762.31;5001535;28;45097;-63
2022/01/10 03:34:51;;;;;;;;;37.50;32.75;;;;;9.48;63.87;100822.97;4998352;28;45332;-63
2022/01/10 03:37:16;;;;;;;;;27.75;23.75;;;;;9.51;64.56;100831.06;4998213;28;45956;-63
2022/01/10 03:39:42;;;;;;;;;32.25;28.00;;;;;9.47;64.04;100837.16;4999957;28;45484;-62
2022/01/10 03:42:07;;;;;;;;;39.50;28.25;;;;;9.48;64.02;100848.72;5002983;28;45376;-62
2022/01/10 03:44:33;;;;;;;;;33.25;28.25;;;;;9.46;64.67;100842.44;5003023;28;45380;-62
2022/01/10 03:46:58;;;;;;;;;32.50;30.50;;;;;9.43;64.92;100837.91;5002138;28;45483;-63
2022/01/10 03:49:24;;;;;;;;;29.75;26.50;;;;;9.39;64.26;100844.03;5001644;28;45739;-62
2022/01/10 03:51:50;;;;;;;;;31.75;30.00;;;;;9.34;64.80;100843.84;5003093;28;45102;-64
2022/01/10 03:54:15;;;;;;;;;34.75;30.00;;;;;9.35;65.17;100842.97;5002886;28;45168;-64
2022/01/10 03:56:41;;;;;;;;;37.00;32.25;;;;;9.39;64.24;100865.34;4997038;28;45410;-63
2022/01/10 03:59:06;;;;;;;;;35.25;30.00;;;;;9.41;64.80;100861.84;4998675;28;45296;-63
2022/01/10 04:01:31;;;;;;;;;36.50;28.00;;;;;9.43;64.15;100861.91;4999099;28;45332;-63
2022/01/10 04:03:57;;;;;;;;;30.25;28.50;;;;;9.35;64.00;100847.41;4987478;28;45607;-63
2022/01/10 04:06:23;;;;;;;;;42.75;28.50;;;;;9.36;64.26;100867.91;5006035;28;45549;-64
2022/01/10 04:08:49;;;;;;;;;38.50;32.75;;;;;8.90;64.72;100791.75;5001365;28;45298;-62
2022/01/10 04:11:14;;;;;;;;;37.50;32.75;;;;;9.32;65.02;100873.97;5004828;28;45148;-62
2022/01/10 04:13:40;;;;;;;;;41.00;34.50;;;;;9.31;64.48;100878.41;5005942;28;45333;-63
2022/01/10 04:16:06;;;;;;;;;41.50;33.00;;;;;9.27;64.66;100884.47;5007606;28;45531;-62
2022/01/10 04:18:31;;;;;;;;;44.50;36.75;;;;;9.20;64.70;100886.03;5001455;28;45443;-62
2022/01/10 04:20:56;;;;;;;;;44.25;36.00;;;;;9.11;64.64;100864.41;5002161;28;45182;-63
2022/01/10 04:23:22;;;;;;;;;50.75;36.25;;;;;8.81;65.13;100810.97;5001207;28;45101;-62
2022/01/10 04:25:47;;;;;;;;;34.00;29.75;;;;;9.12;64.90;100866.22;5006644;28;45622;-64
2022/01/10 04:28:13;;;;;;;;;37.25;34.00;;;;;9.18;65.05;100881.53;5007518;28;45081;-62
2022/01/10 04:30:38;;;;;;;;;37.00;34.00;;;;;8.92;64.42;100840.66;5006790;28;45143;-62
2022/01/10 04:33:04;;;;;;;;;40.50;34.75;;;;;9.22;65.29;100899.41;5006130;28;45456;-63
2022/01/10 04:35:31;;;;;;;;;47.25;35.75;;;;;9.20;65.03;100895.81;5005766;28;45705;-63
2022/01/10 04:37:57;;;;;;;;;47.75;36.00;;;;;9.16;64.74;100894.81;5005469;28;45306;-62
2022/01/10 04:40:24;;;;;;;;;44.25;35.00;;;;;8.83;64.62;100836.81;5003110;28;45109;-62
2022/01/10 04:42:50;;;;;;;;;47.00;36.75;;;;;9.09;64.56;100898.13;5000218;28;45698;-63
2022/01/10 04:45:16;;;;;;;;;39.50;34.75;;;;;9.16;64.92;100934.78;5001389;28;45879;-63
2022/01/10 04:47:41;;;;;;;;;49.00;39.50;;;;;9.09;64.64;100934.50;4986309;28;45189;-63
2022/01/10 04:52:46;;;;;;;;;54.75;42.75;;;;;8.96;63.95;100947.41;5007932;28;44987;-63
2022/01/10 04:55:12;;;;;;;;;52.75;43.00;;;;;8.95;64.67;100952.69;5007934;28;45156;-63
2022/01/10 04:57:37;;;;;;;;;57.00;45.50;;;;;8.85;65.10;100954.09;5004682;28;45937;-62
2022/01/10 05:00:08;;;;;;;;;52.00;41.50;;;;;8.87;64.23;100959.47;5005569;28;45869;-61
2022/01/10 05:02:33;;;;;;;;;56.00;43.00;;;;;8.83;65.00;100967.34;5002367;28;45469;-62
2022/01/10 05:04:59;;;;;;;;;51.25;40.50;;;;;8.80;65.28;100969.00;5000456;28;45543;-63
2022/01/10 05:07:24;;;;;;;;;56.75;44.75;;;;;8.80;64.15;100972.56;5000504;28;45681;-63
2022/01/10 05:09:49;;;;;;;;;67.00;47.25;;;;;8.80;65.23;100980.56;5002360;28;45789;-63
2022/01/10 05:12:15;;;;;;;;;57.00;40.25;;;;;8.79;63.70;100984.09;5005951;28;45435;-62
2022/01/10 05:14:41;;;;;;;;;55.75;44.75;;;;;8.80;64.17;100983.22;5005568;28;45225;-63
2022/01/10 05:17:07;;;;;;;;;56.50;46.50;;;;;8.74;64.12;100987.41;5004810;28;45259;-63
2022/01/10 05:19:32;;;;;;;;;59.50;46.50;;;;;8.69;64.60;100987.25;5004943;28;45247;-63
2022/01/10 05:21:58;;;;;;;;;54.25;46.25;;;;;8.67;64.73;100992.50;5007409;28;45436;-63
2022/01/10 05:24:23;;;;;;;;;60.50;44.75;;;;;8.59;64.20;100979.75;5004615;28;46309;-63
2022/01/10 05:26:49;;;;;;;;;56.50;46.75;;;;;8.59;63.88;100991.31;4996811;28;45356;-63
2022/01/10 05:29:15;;;;;;;;;54.00;44.75;;;;;8.44;64.22;100970.31;4999806;28;45382;-63
2022/01/10 05:31:42;;;;;;;;;56.00;46.75;;;;;8.57;64.33;101005.44;5001050;28;45367;-63
2022/01/10 05:34:07;;;;;;;;;60.25;46.00;;;;;8.55;64.83;101012.47;5004748;28;45855;-63
2022/01/10 05:36:33;;;;;;;;;57.75;46.50;;;;;8.53;63.89;101020.38;5004548;28;45938;-63
2022/01/10 05:38:58;;;;;;;;;53.75;44.75;;;;;8.49;65.36;101007.78;5005408;28;45248;-62
2022/01/10 05:41:24;;;;;;;;;56.75;44.50;;;;;8.53;65.06;101017.72;5005505;28;44973;-62
2022/01/10 05:43:50;;;;;;;;;61.25;46.75;;;;;8.49;64.70;101015.78;5004928;28;45209;-62
2022/01/10 05:46:19;;;;;;;;;59.75;43.00;;;;;8.43;64.11;100999.56;5004216;28;45550;-63
2022/01/10 05:48:47;;;;;;;;;59.25;47.00;;;;;8.53;64.34;101027.44;5000196;28;45418;-63
2022/01/10 05:51:14;;;;;;;;;53.50;43.50;;;;;8.52;64.78;101031.88;5000548;28;45820;-63
2022/01/10 05:53:39;;;;;;;;;57.50;46.50;;;;;8.24;65.12;100993.47;4999905;28;45670;-64
2022/01/10 05:56:04;;;;;;;;;61.25;48.00;;;;;8.53;64.15;101044.34;4999705;28;45156;-63
2022/01/10 05:58:30;;;;;;;;;57.75;44.00;;;;;8.44;64.15;101022.69;5005171;28;45754;-63
2022/01/10 06:00:56;;;;;;;;;55.25;44.50;;;;;8.49;64.94;101042.41;5005056;28;45263;-62
2022/01/10 06:03:21;;;;;;;;;57.00;45.00;;;;;8.50;65.23;101057.53;5004243;28;46205;-62
2022/01/10 06:05:46;;;;;;;;;55.00;40.50;;;;;8.49;65.09;101061.03;5004929;28;45159;-62
2022/01/10 06:08:12;;;;;;;;;56.00;41.25;;;;;8.47;64.71;101054.75;5007421;28;45388;-63
2022/01/10 06:10:37;;;;;;;;;54.75;42.50;;;;;8.54;65.27;101064.78;5002863;28;45714;-63
2022/01/10 06:13:03;;;;;;;;;55.25;45.75;;;;;8.37;64.94;101045.47;4999633;28;45262;-63
2022/01/10 06:15:28;;;;;;;;;53.00;45.00;;;;;8.38;64.40;101067.66;4999414;28;45384;-62
2022/01/10 06:17:54;;;;;;;;;60.50;47.25;;;;;8.45;64.69;101107.06;5002368;28;45719;-63
2022/01/10 06:20:20;;;;;;;;;60.50;48.25;;;;;8.40;63.93;101100.59;5005000;28;45089;-62
2022/01/10 06:22:46;;;;;;;;;60.00;48.50;;;;;8.37;64.45;101114.69;5005716;28;45150;-63
2022/01/10 06:25:15;;;;;;;;;60.25;47.25;;;;;8.35;63.52;101116.38;5005896;28;45604;-63
2022/01/10 06:27:40;;;;;;;;;60.50;47.75;;;;;8.39;63.26;101120.06;5002767;28;45226;-63
2022/01/10 06:30:07;;;;;;;;;59.50;45.50;;;;;8.28;63.51;101103.63;5003699;28;45397;-62
2022/01/10 06:32:32;;;;;;;;;66.25;49.75;;;;;8.24;63.62;101120.34;5001607;28;46512;-64
2022/01/10 06:34:58;;;;;;;;;65.00;47.25;;;;;7.70;64.01;101031.16;4997558;28;45696;-63
2022/01/10 06:37:26;;;;;;;;;61.00;46.25;;;;;8.20;63.65;101126.38;4999026;28;45328;-62
2022/01/10 06:39:52;;;;;;;;;62.75;50.00;;;;;8.16;63.81;101125.34;5000179;28;45411;-64
2022/01/10 06:42:18;;;;;;;;;53.75;45.00;;;;;8.16;63.71;101138.63;5002431;28;45144;-63
2022/01/10 06:44:44;;;;;;;;;57.25;44.50;;;;;8.16;63.57;101146.63;5005450;28;45404;-65
2022/01/10 06:47:10;;;;;;;;;53.75;43.75;;;;;8.19;64.17;101153.84;5005750;28;45170;-65
2022/01/10 06:49:35;;;;;;;;;52.25;37.75;;;;;7.96;65.59;101142.22;5005006;28;45278;-63
2022/01/10 06:52:01;;;;;;;;;40.25;34.00;;;;;8.12;65.42;101168.66;5001929;28;45563;-62
2022/01/10 06:54:27;;;;;;;;;44.00;37.00;;;;;7.88;66.41;101132.13;5002333;28;45779;-63
2022/01/10 06:56:52;;;;;;;;;46.00;37.00;;;;;8.09;65.67;101179.16;4997167;28;45400;-64
2022/01/10 06:59:18;;;;;;;;;42.75;31.00;;;;;8.17;66.03;101185.72;4998179;28;45197;-64
2022/01/10 07:01:45;;;;;;;;;33.00;28.75;;;;;8.20;66.27;101193.84;4998370;28;45390;-63
2022/01/10 07:04:10;;;;;;;;;48.00;36.00;;;;;8.21;66.19;101202.72;5001248;28;45253;-63
2022/01/10 07:06:36;;;;;;;;;38.00;30.50;;;;;8.24;65.25;101209.09;5002554;28;45421;-65
2022/01/10 07:09:01;;;;;;;;;41.50;35.75;;;;;8.23;65.51;101217.94;5000438;28;45557;-65
2022/01/10 07:11:27;;;;;;;;;39.75;29.50;;;;;8.18;65.01;101234.53;5002185;28;45720;-63
2022/01/10 07:13:53;;;;;;;;;39.25;29.50;;;;;8.12;65.80;101240.50;5005061;28;45515;-63
2022/01/10 07:16:19;;;;;;;;;33.75;29.75;;;;;8.10;66.36;101240.44;5002826;28;45221;-64
2022/01/10 07:18:44;;;;;;;;;28.75;26.50;;;;;8.18;65.33;101251.38;4998379;28;45512;-64
2022/01/10 07:21:09;;;;;;;;;34.25;24.50;;;;;8.07;66.11;101258.91;4988285;28;45606;-65
2022/01/10 07:23:35;;;;;;;;;33.75;25.75;;;;;7.56;66.24;101181.25;4981350;28;45789;-65
2022/01/10 07:26:00;;;;;;;;;47.25;34.00;;;;;8.09;67.07;101269.63;4990559;28;45707;-64
2022/01/10 07:28:25;;;;;;;;;42.50;30.75;;;;;8.02;66.66;101273.78;4985477;28;45324;-66
2022/01/10 07:30:51;;;;;;;;;38.00;30.00;;;;;7.91;66.60;101259.06;4993256;28;46641;-64
2022/01/10 07:33:17;;;;;;;;;35.00;32.50;;;;;7.89;66.50;101277.63;4985907;28;45729;-64
2022/01/10 07:35:42;;;;;;;;;47.00;34.25;;;;;7.74;66.47;101263.63;4986476;28;46010;-62
2022/01/10 07:38:07;;;;;;;;;53.25;35.50;;;;;7.83;66.07;101293.28;4986225;28;45483;-64
2022/01/10 07:40:33;;;;;;;;;45.00;37.75;;;;;7.77;66.53;101301.00;4983260;28;45851;-66
2022/01/10 07:42:59;;;;;;;;;66.50;51.75;;;;;7.69;66.82;101305.06;4978203;28;46046;-64
2022/01/10 07:45:24;;;;;;;;;28.25;28.00;;;;;7.80;66.48;101329.47;4977982;28;45763;-64
2022/01/10 07:47:50;;;;;;;;;41.75;30.75;;;;;7.68;66.49;101325.41;4998199;28;45419;-63
2022/01/10 07:50:16;;;;;;;;;40.75;31.50;;;;;7.55;66.54;101318.59;5001598;28;47348;-64
2022/01/10 07:52:42;;;;;;;;;36.75;30.50;;;;;7.07;66.13;101272.88;4992347;28;45423;-63
2022/01/10 07:55:08;;;;;;;;;37.25;34.25;;;;;6.82;66.76;101257.47;4988704;28;45578;-67
2022/01/10 07:57:33;;;;;;;;;38.75;28.25;;;;;7.18;67.26;101337.19;4985343;28;45563;-64
2022/01/10 07:59:59;;;;;;;;;32.25;28.25;;;;;7.19;66.88;101355.84;4984533;28;45649;-65
2022/01/10 08:02:25;;;;;;;;;30.75;29.75;;;;;7.33;66.89;101375.13;4981647;28;45522;-63
2022/01/10 08:04:51;;;;;;;;;30.75;27.75;;;;;7.27;66.98;101384.56;4976309;28;46006;-63
2022/01/10 08:07:17;;;;;;;;;37.25;30.50;;;;;7.15;67.19;101388.41;4979895;28;45708;-62
2022/01/10 08:09:42;;;;;;;;;44.75;38.25;;;;;7.25;66.93;101392.44;4978909;28;45699;-64
2022/01/10 08:12:08;;;;;;;;;33.75;29.25;;;;;7.11;67.24;101367.84;4985222;28;45479;-65
2022/01/10 08:14:34;;;;;;;;;23.25;13.25;;;;;7.26;66.23;101406.63;4983416;28;45504;-64
2022/01/10 08:16:59;;;;;;;;;33.75;26.00;;;;;6.96;66.17;101354.72;4984619;28;45616;-65
2022/01/10 08:19:30;;;;;;;;;40.25;24.50;;;;;7.17;66.24;101391.16;4984279;28;45458;-63
2022/01/10 08:21:56;;;;;;;;;50.75;38.50;;;;;7.05;65.77;101371.94;4983963;28;45920;-65
2022/01/10 08:24:23;;;;;;;;;30.00;21.00;;;;;7.16;64.97;101407.91;4984701;28;45707;-65
2022/01/10 08:26:52;;;;;;;;;18.75;15.00;;;;;7.04;65.19;101402.88;4977463;28;45693;-64
2022/01/10 08:29:18;;;;;;;;;14.25;11.50;;;;;7.03;64.78;101424.06;4976770;28;45809;-66
2022/01/10 08:31:45;;;;;;;;;19.75;16.00;;;;;6.93;65.50;101425.34;4977373;28;45965;-64
2022/01/10 08:34:10;;;;;;;;;13.50;11.00;;;;;6.90;66.04;101423.44;4983611;28;45426;-64
2022/01/10 08:36:35;;;;;;;;;20.25;19.75;;;;;6.95;65.83;101429.00;4985415;28;45532;-65
2022/01/10 08:39:03;;;;;;;;;15.75;14.75;;;;;6.96;65.51;101431.75;4985051;28;46189;-65
2022/01/10 08:41:28;;;;;;;;;20.50;18.50;;;;;6.98;65.99;101440.69;4991335;28;45469;-64
2022/01/10 08:43:54;;;;;;;;;68.00;52.50;;;;;6.97;65.78;101440.63;4992242;28;45546;-64
2022/01/10 08:46:19;;;;;;;;;20.25;16.25;;;;;6.96;65.70;101447.69;4998126;28;45877;-64
2022/01/10 08:48:44;;;;;;;;;17.50;14.25;;;;;6.98;66.05;101448.66;4996114;28;46182;-65
2022/01/10 08:51:10;;;;;;;;;23.00;20.00;;;;;6.97;66.43;101437.97;4977504;28;45463;-65
2022/01/10 08:53:36;;;;;;;;;21.00;17.75;;;;;7.05;66.10;101447.25;4982912;28;45755;-64
2022/01/10 08:56:02;;;;;;;;;18.75;17.00;;;;;7.08;66.14;101455.38;4981016;28;45864;-65
2022/01/10 08:58:32;;;;;;;;;15.25;14.75;;;;;7.05;65.68;101456.97;4983899;28;47545;-64
2022/01/10 09:00:59;;;;;;;;;17.00;15.25;;;;;7.08;65.65;101446.47;4982712;28;46077;-64
2022/01/10 09:03:25;;;;;;;;;19.00;15.50;;;;;7.07;65.19;101442.91;4984844;28;45572;-65
2022/01/10 09:05:50;;;;;;;;;17.75;13.50;;;;;7.32;65.41;101484.03;4988533;28;45468;-66
2022/01/10 09:08:16;;;;;;;;;18.50;13.75;;;;;7.36;65.51;101486.94;4987670;28;46406;-64
2022/01/10 09:10:42;;;;;;;;;24.75;18.75;;;;;7.24;65.29;101482.72;4985591;28;45560;-65
2022/01/10 09:13:07;;;;;;;;;14.25;13.75;;;;;7.29;65.55;101505.13;4980067;28;45750;-64
2022/01/10 09:15:33;;;;;;;;;28.00;17.75;;;;;6.50;65.02;101377.94;4977970;28;45728;-63
2022/01/10 09:17:59;;;;;;;;;22.25;16.75;;;;;6.89;65.97;101468.53;4983469;28;45536;-66
2022/01/10 09:20:25;;;;;;;;;22.00;18.25;;;;;6.91;65.84;101457.13;4987476;28;45436;-69
2022/01/10 09:22:51;;;;;;;;;15.75;14.50;;;;;7.16;65.73;101499.19;4987820;28;46030;-64
2022/01/10 09:25:16;;;;;;;;;26.25;16.25;;;;;7.20;65.82;101509.13;4988162;28;45594;-63
2022/01/10 09:27:42;;;;;;;;;15.25;14.75;;;;;7.23;66.04;101512.81;4987907;28;45603;-65
2022/01/10 09:30:08;;;;;;;;;20.25;18.75;;;;;7.22;65.66;101503.91;4988026;28;45427;-67
2022/01/10 09:32:34;;;;;;;;;27.25;16.75;;;;;7.36;65.60;101523.25;4987549;28;45506;-67
2022/01/10 09:34:59;;;;;;;;;22.50;16.00;;;;;7.32;65.65;101527.47;4979321;28;46087;-66
2022/01/10 09:37:25;;;;;;;;;23.50;21.75;;;;;7.32;65.69;101532.78;4979557;28;45679;-64
2022/01/10 09:39:51;;;;;;;;;32.00;20.25;;;;;7.20;66.09;101510.91;4981619;28;45565;-65
2022/01/10 09:42:17;;;;;;;;;34.25;28.50;;;;;7.35;65.61;101532.94;4987264;28;45654;-64
2022/01/10 09:44:43;;;;;;;;;27.50;23.75;;;;;7.32;65.71;101526.56;4987947;28;45637;-63
2022/01/10 09:47:08;;;;;;;;;22.75;19.25;;;;;6.95;65.52;101482.13;4986852;28;45824;-64
2022/01/10 09:49:33;;;;;;;;;25.00;20.00;;;;;7.59;65.51;101548.38;4987607;28;45369;-63
2022/01/10 09:51:59;;;;;;;;;39.50;31.50;;;;;7.62;64.70;101550.25;4985818;28;45649;-64
2022/01/10 09:54:24;;;;;;;;;26.75;20.00;;;;;7.65;64.87;101567.28;4986242;28;45495;-66
2022/01/10 09:56:50;;;;;;;;;21.50;18.75;;;;;7.66;65.27;101569.09;4980497;28;46393;-66
2022/01/10 09:59:16;;;;;;;;;18.75;16.00;;;;;7.59;64.39;101551.03;4979442;28;45798;-65
2022/01/10 10:01:43;;;;;;;;;27.00;24.25;;;;;7.68;64.60;101559.44;4978628;28;45949;-64
2022/01/10 10:04:11;;;;;;;;;27.00;22.50;;;;;7.76;64.37;101578.47;4983586;28;45941;-65
2022/01/10 10:06:36;;;;;;;;;18.75;17.25;;;;;7.50;64.40;101547.88;4985441;28;46533;-65
2022/01/10 10:09:08;;;;;;;;;26.00;20.00;;;;;7.73;65.13;101588.94;4986272;28;45632;-65
2022/01/10 10:11:44;;;;;;;;;30.75;23.25;;;;;7.77;64.84;101596.28;4986177;28;47035;-65
2022/01/10 10:14:12;;;;;;;;;35.00;22.50;;;;;7.81;64.94;101608.88;4987483;28;45600;-64
2022/01/10 10:16:41;;;;;;;;;27.75;24.75;;;;;7.78;65.35;101598.06;4986437;28;47201;-66
2022/01/10 10:19:06;;;;;;;;;31.50;25.50;;;;;7.79;65.06;101586.63;4983370;28;45523;-65
2022/01/10 10:21:33;;;;;;;;;38.50;30.00;;;;;7.72;65.11;101592.44;4998263;28;45350;-64
2022/01/10 10:23:59;;;;;;;;;29.75;21.25;;;;;7.55;65.15;101576.50;4981777;28;45491;-65
2022/01/10 10:26:26;;;;;;;;;34.25;23.25;;;;;7.65;65.84;101595.63;4984423;28;46261;-67
2022/01/10 10:28:54;;;;;;;;;30.50;28.50;;;;;7.68;65.47;101598.44;4968953;28;45471;-64
2022/01/10 10:31:34;;;;;;;;;35.75;29.75;;;;;7.61;65.41;101572.38;4986879;28;45834;-65
2022/01/10 10:34:02;;;;;;;;;29.75;26.00;;;;;7.62;65.83;101580.41;4986151;28;45868;-64
2022/01/10 10:36:31;;;;;;;;;33.25;27.75;;;;;7.85;65.46;101609.94;4986426;28;46147;-68
2022/01/10 10:39:03;;;;;;;;;46.75;28.50;;;;;7.86;64.94;101609.13;4994642;28;45407;-66
2022/01/10 10:41:28;;;;;;;;;46.25;30.75;;;;;7.92;64.71;101610.34;4993356;28;45343;-68
2022/01/10 10:43:54;;;;;;;;;36.00;30.50;;;;;7.98;65.49;101616.81;4986541;28;45449;-65
2022/01/10 10:46:25;;;;;;;;;37.25;29.00;;;;;7.43;64.73;101520.06;4991050;28;46380;-67
2022/01/10 10:48:59;;;;;;;;;36.75;29.50;;;;;7.64;65.23;101560.16;4984328;28;45480;-65
2022/01/10 10:51:34;;;;;;;;;26.50;24.00;;;;;7.97;65.03;101634.53;4982217;28;45877;-65
2022/01/10 10:54:09;;;;;;;;;32.75;28.50;;;;;7.98;64.98;101620.38;5004977;28;45276;-65
2022/01/10 10:56:38;;;;;;;;;34.75;29.00;;;;;7.81;64.93;101631.91;5001115;28;45305;-68
2022/01/10 10:59:07;;;;;;;;;37.50;27.25;;;;;7.75;64.95;101609.50;5003539;28;45203;-65
2022/01/10 11:01:36;;;;;;;;;28.00;22.00;;;;;7.81;65.53;101635.47;4999346;28;45745;-66
2022/01/10 11:04:03;;;;;;;;;29.75;28.50;;;;;7.77;66.18;101630.84;4983405;28;45754;-65
2022/01/10 11:06:31;;;;;;;;;38.00;31.75;;;;;7.74;66.37;101634.25;4989091;28;47001;-64
2022/01/10 11:08:59;;;;;;;;;34.25;25.75;;;;;7.69;65.97;101627.78;4980488;28;45710;-64
2022/01/10 11:11:25;;;;;;;;;50.50;37.00;;;;;7.81;66.46;101640.81;4982805;28;45902;-63
2022/01/10 11:13:55;;;;;;;;;39.50;32.75;;;;;7.51;66.53;101587.84;4988526;28;45458;-64
2022/01/10 11:16:21;;;;;;;;;35.50;30.50;;;;;7.52;65.97;101592.34;4991523;28;46017;-65
2022/01/10 11:18:48;;;;;;;;;58.25;39.50;;;;;7.78;66.45;101639.75;4986706;28;45484;-64
2022/01/10 11:21:15;;;;;;;;;42.25;34.75;;;;;7.75;66.60;101630.78;4985825;28;45491;-63